sensor_id;sensor_type;location;lat;lon;timestamp;pressure;altitude;pressure_sealevel;temperature;humidity
70921;BME280;58572;48.110;19.838;2023-04-06T00:01:16;97865.28;;;0.27;57.25
70921;BME280;58572;48.110;19.838;2023-04-06T00:03:43;97859.34;;;0.68;55.55
70921;BME280;58572;48.110;19.838;2023-04-06T00:06:10;97870.44;;;-0.10;59.40
70921;BME280;58572;48.110;19.838;2023-04-06T00:08:38;97866.53;;;0.68;56.06
70921;BME280;58572;48.110;19.838;2023-04-06T00:11:05;97868.97;;;-0.06;59.21
70921;BME280;58572;48.110;19.838;2023-04-06T00:13:32;97862.25;;;0.17;57.64
70921;BME280;58572;48.110;19.838;2023-04-06T00:16:01;97866.41;;;0.13;58.57
70921;BME280;58572;48.110;19.838;2023-04-06T00:18:28;97858.19;;;0.14;58.12
70921;BME280;58572;48.110;19.838;2023-04-06T00:20:55;97858.44;;;0.31;56.80
70921;BME280;58572;48.110;19.838;2023-04-06T00:23:22;97861.66;;;-0.17;59.28
70921;BME280;58572;48.110;19.838;2023-04-06T00:25:50;97855.56;;;-0.30;59.58
70921;BME280;58572;48.110;19.838;2023-04-06T00:28:17;97857.13;;;-0.16;59.43
70921;BME280;58572;48.110;19.838;2023-04-06T00:30:50;97855.19;;;-0.03;58.28
70921;BME280;58572;48.110;19.838;2023-04-06T00:33:19;97855.56;;;-0.69;62.69
70921;BME280;58572;48.110;19.838;2023-04-06T00:35:47;97853.97;;;-0.76;63.22
70921;BME280;58572;48.110;19.838;2023-04-06T00:38:14;97841.47;;;0.44;56.95
70921;BME280;58572;48.110;19.838;2023-04-06T00:40:42;97854.13;;;-0.65;62.71
70921;BME280;58572;48.110;19.838;2023-04-06T00:43:11;97853.75;;;-0.75;62.94
70921;BME280;58572;48.110;19.838;2023-04-06T00:45:38;97669.91;;;-1.72;61.51
70921;BME280;58572;48.110;19.838;2023-04-06T00:48:06;97847.59;;;-0.06;58.31
70921;BME280;58572;48.110;19.838;2023-04-06T00:50:35;97851.44;;;-0.65;60.77
70921;BME280;58572;48.110;19.838;2023-04-06T00:53:02;97850.03;;;-0.29;60.75
70921;BME280;58572;48.110;19.838;2023-04-06T00:55:29;97841.16;;;-0.23;58.00
70921;BME280;58572;48.110;19.838;2023-04-06T00:57:58;97844.59;;;0.16;57.27
70921;BME280;58572;48.110;19.838;2023-04-06T01:00:26;97843.28;;;-0.07;57.04
70921;BME280;58572;48.110;19.838;2023-04-06T01:02:54;97843.59;;;-0.21;58.37
70921;BME280;58572;48.110;19.838;2023-04-06T01:05:21;97847.59;;;-0.06;56.90
70921;BME280;58572;48.110;19.838;2023-04-06T01:07:49;97837.84;;;0.56;54.33
70921;BME280;58572;48.110;19.838;2023-04-06T01:10:23;97762.69;;;-0.28;52.25
70921;BME280;58572;48.110;19.838;2023-04-06T01:12:51;97844.41;;;-0.52;60.93
70921;BME280;58572;48.110;19.838;2023-04-06T01:15:18;97847.38;;;-0.36;58.21
70921;BME280;58572;48.110;19.838;2023-04-06T01:17:46;97847.56;;;-0.30;58.32
70921;BME280;58572;48.110;19.838;2023-04-06T01:20:13;97843.34;;;0.18;56.53
70921;BME280;58572;48.110;19.838;2023-04-06T01:22:42;97837.41;;;-0.15;58.33
70921;BME280;58572;48.110;19.838;2023-04-06T01:25:10;97832.50;;;0.56;55.06
70921;BME280;58572;48.110;19.838;2023-04-06T01:27:37;97800.16;;;0.40;54.56
70921;BME280;58572;48.110;19.838;2023-04-06T01:30:06;97828.72;;;1.01;53.07
70921;BME280;58572;48.110;19.838;2023-04-06T01:32:33;97837.28;;;-0.27;57.96
70921;BME280;58572;48.110;19.838;2023-04-06T01:35:01;97823.81;;;0.18;56.82
70921;BME280;58572;48.110;19.838;2023-04-06T01:37:28;97828.56;;;-0.47;61.41
70921;BME280;58572;48.110;19.838;2023-04-06T01:39:59;97817.97;;;0.03;57.82
70921;BME280;58572;48.110;19.838;2023-04-06T01:42:27;97815.78;;;0.43;55.19
70921;BME280;58572;48.110;19.838;2023-04-06T01:44:54;97808.59;;;0.61;54.55
70921;BME280;58572;48.110;19.838;2023-04-06T01:47:21;97799.53;;;0.62;56.96
70921;BME280;58572;48.110;19.838;2023-04-06T01:49:48;97812.59;;;-0.22;58.78
70921;BME280;58572;48.110;19.838;2023-04-06T01:52:16;97804.16;;;-0.51;61.69
70921;BME280;58572;48.110;19.838;2023-04-06T01:54:43;97789.41;;;0.64;54.92
70921;BME280;58572;48.110;19.838;2023-04-06T01:57:11;97797.50;;;0.40;55.29
70921;BME280;58572;48.110;19.838;2023-04-06T01:59:39;97803.84;;;-0.36;59.53
70921;BME280;58572;48.110;19.838;2023-04-06T02:02:06;97799.19;;;0.34;55.68
70921;BME280;58572;48.110;19.838;2023-04-06T02:04:33;97790.47;;;-0.05;58.03
70921;BME280;58572;48.110;19.838;2023-04-06T02:07:00;97793.25;;;-0.49;62.33
70921;BME280;58572;48.110;19.838;2023-04-06T02:09:27;97797.44;;;-0.04;57.72
70921;BME280;58572;48.110;19.838;2023-04-06T02:11:55;97785.13;;;-0.05;57.71
70921;BME280;58572;48.110;19.838;2023-04-06T02:14:25;97796.78;;;-0.55;61.98
70921;BME280;58572;48.110;19.838;2023-04-06T02:16:52;97787.78;;;0.63;54.39
70921;BME280;58572;48.110;19.838;2023-04-06T02:19:20;97794.53;;;0.48;54.54
70921;BME280;58572;48.110;19.838;2023-04-06T02:21:48;97783.03;;;0.84;53.42
70921;BME280;58572;48.110;19.838;2023-04-06T02:24:15;97762.22;;;0.86;52.78
70921;BME280;58572;48.110;19.838;2023-04-06T02:26:42;97782.06;;;0.17;56.12
70921;BME280;58572;48.110;19.838;2023-04-06T02:29:09;97775.53;;;0.13;56.35
70921;BME280;58572;48.110;19.838;2023-04-06T02:31:38;97786.00;;;-0.74;62.47
70921;BME280;58572;48.110;19.838;2023-04-06T02:34:05;97777.38;;;-0.13;58.37
70921;BME280;58572;48.110;19.838;2023-04-06T02:36:32;97781.81;;;0.43;55.21
70921;BME280;58572;48.110;19.838;2023-04-06T02:39:00;97756.28;;;0.66;53.58
70921;BME280;58572;48.110;19.838;2023-04-06T02:41:27;97773.06;;;0.91;53.12
70921;BME280;58572;48.110;19.838;2023-04-06T02:43:54;97772.06;;;1.04;52.54
70921;BME280;58572;48.110;19.838;2023-04-06T02:46:21;97765.34;;;0.83;53.67
70921;BME280;58572;48.110;19.838;2023-04-06T02:48:50;97768.22;;;0.45;53.89
70921;BME280;58572;48.110;19.838;2023-04-06T02:51:17;97782.06;;;-0.65;59.94
70921;BME280;58572;48.110;19.838;2023-04-06T02:53:44;97773.66;;;0.38;54.32
70921;BME280;58572;48.110;19.838;2023-04-06T02:56:11;97766.31;;;0.70;53.76
70921;BME280;58572;48.110;19.838;2023-04-06T02:58:39;97761.16;;;0.87;52.71
70921;BME280;58572;48.110;19.838;2023-04-06T03:01:06;97769.19;;;0.87;52.87
70921;BME280;58572;48.110;19.838;2023-04-06T03:03:33;97767.28;;;0.57;53.43
70921;BME280;58572;48.110;19.838;2023-04-06T03:06:01;97768.88;;;0.22;54.70
70921;BME280;58572;48.110;19.838;2023-04-06T03:08:28;97758.50;;;0.69;53.19
70921;BME280;58572;48.110;19.838;2023-04-06T03:10:55;97760.88;;;0.77;52.83
70921;BME280;58572;48.110;19.838;2023-04-06T03:13:22;97760.50;;;0.55;53.61
70921;BME280;58572;48.110;19.838;2023-04-06T03:15:49;97742.91;;;0.66;52.21
70921;BME280;58572;48.110;19.838;2023-04-06T03:18:20;97727.00;;;0.52;52.77
70921;BME280;58572;48.110;19.838;2023-04-06T03:20:47;97763.56;;;0.58;53.13
70921;BME280;58572;48.110;19.838;2023-04-06T03:23:16;97756.44;;;0.71;53.13
70921;BME280;58572;48.110;19.838;2023-04-06T03:25:43;97758.34;;;0.63;53.05
70921;BME280;58572;48.110;19.838;2023-04-06T03:28:10;97772.19;;;0.60;53.66
70921;BME280;58572;48.110;19.838;2023-04-06T03:30:37;97649.69;;;0.14;52.11
70921;BME280;58572;48.110;19.838;2023-04-06T03:33:04;97761.19;;;0.69;52.69
70921;BME280;58572;48.110;19.838;2023-04-06T03:35:31;97760.22;;;0.63;52.94
70921;BME280;58572;48.110;19.838;2023-04-06T03:37:58;97756.63;;;0.32;53.59
70921;BME280;58572;48.110;19.838;2023-04-06T03:40:27;97762.53;;;-0.09;54.75
70921;BME280;58572;48.110;19.838;2023-04-06T03:42:54;97758.03;;;0.17;54.44
70921;BME280;58572;48.110;19.838;2023-04-06T03:45:21;97760.78;;;-0.21;58.20
70921;BME280;58572;48.110;19.838;2023-04-06T03:47:48;97748.25;;;0.47;53.47
70921;BME280;58572;48.110;19.838;2023-04-06T03:50:15;97731.00;;;0.25;53.62
70921;BME280;58572;48.110;19.838;2023-04-06T03:52:42;97756.63;;;-0.42;60.74
70921;BME280;58572;48.110;19.838;2023-04-06T03:55:09;97751.63;;;0.18;54.78
70921;BME280;58572;48.110;19.838;2023-04-06T03:57:38;97751.38;;;0.44;53.93
70921;BME280;58572;48.110;19.838;2023-04-06T04:00:06;97754.50;;;0.59;53.14
70921;BME280;58572;48.110;19.838;2023-04-06T04:02:33;97749.66;;;0.50;53.23
70921;BME280;58572;48.110;19.838;2023-04-06T04:05:00;97743.78;;;0.59;53.06
70921;BME280;58572;48.110;19.838;2023-04-06T04:07:27;97743.78;;;0.41;53.25
70921;BME280;58572;48.110;19.838;2023-04-06T04:09:54;97749.84;;;0.12;54.08
70921;BME280;58572;48.110;19.838;2023-04-06T04:12:22;97753.34;;;-1.14;60.37
70921;BME280;58572;48.110;19.838;2023-04-06T04:14:50;97741.50;;;0.02;54.93
70921;BME280;58572;48.110;19.838;2023-04-06T04:17:17;97736.78;;;0.22;54.03
70921;BME280;58572;48.110;19.838;2023-04-06T04:19:44;97735.47;;;0.31;54.20
70921;BME280;58572;48.110;19.838;2023-04-06T04:22:11;97742.81;;;0.17;53.79
70921;BME280;58572;48.110;19.838;2023-04-06T04:24:38;97736.34;;;0.25;53.72
70921;BME280;58572;48.110;19.838;2023-04-06T04:27:05;97744.34;;;0.07;54.62
70921;BME280;58572;48.110;19.838;2023-04-06T04:29:32;97734.22;;;0.34;53.12
70921;BME280;58572;48.110;19.838;2023-04-06T04:32:01;97736.22;;;0.38;53.35
70921;BME280;58572;48.110;19.838;2023-04-06T04:34:28;97731.69;;;0.39;53.24
70921;BME280;58572;48.110;19.838;2023-04-06T04:36:55;97732.22;;;0.47;53.08
70921;BME280;58572;48.110;19.838;2023-04-06T04:39:22;97725.38;;;0.51;52.78
70921;BME280;58572;48.110;19.838;2023-04-06T04:41:49;97720.63;;;0.35;53.57
70921;BME280;58572;48.110;19.838;2023-04-06T04:44:16;97728.03;;;-0.35;55.91
70921;BME280;58572;48.110;19.838;2023-04-06T04:46:43;97727.22;;;-0.11;54.48
70921;BME280;58572;48.110;19.838;2023-04-06T04:49:12;97717.94;;;0.17;54.48
70921;BME280;58572;48.110;19.838;2023-04-06T04:51:39;97723.59;;;0.45;53.30
70921;BME280;58572;48.110;19.838;2023-04-06T04:54:06;97715.88;;;0.37;53.62
70921;BME280;58572;48.110;19.838;2023-04-06T04:56:33;97720.47;;;0.48;53.11
70921;BME280;58572;48.110;19.838;2023-04-06T04:59:00;97722.09;;;0.49;52.94
70921;BME280;58572;48.110;19.838;2023-04-06T05:01:27;97716.69;;;-0.06;54.77
70921;BME280;58572;48.110;19.838;2023-04-06T05:03:54;97704.72;;;0.40;52.80
70921;BME280;58572;48.110;19.838;2023-04-06T05:06:23;97644.81;;;-0.14;54.37
70921;BME280;58572;48.110;19.838;2023-04-06T05:08:51;97702.13;;;0.52;53.09
70921;BME280;58572;48.110;19.838;2023-04-06T05:11:18;97707.63;;;0.57;53.22
70921;BME280;58572;48.110;19.838;2023-04-06T05:13:45;97702.19;;;0.63;52.83
70921;BME280;58572;48.110;19.838;2023-04-06T05:16:12;97693.31;;;0.81;52.48
70921;BME280;58572;48.110;19.838;2023-04-06T05:18:39;97699.22;;;0.53;53.39
70921;BME280;58572;48.110;19.838;2023-04-06T05:21:06;97684.53;;;0.92;51.76
70921;BME280;58572;48.110;19.838;2023-04-06T05:23:35;97690.38;;;1.01;52.18
70921;BME280;58572;48.110;19.838;2023-04-06T05:26:02;97676.19;;;1.01;52.24
70921;BME280;58572;48.110;19.838;2023-04-06T05:28:29;97684.44;;;0.99;52.18
70921;BME280;58572;48.110;19.838;2023-04-06T05:30:56;97686.53;;;1.27;51.39
70921;BME280;58572;48.110;19.838;2023-04-06T05:33:23;97686.38;;;1.10;51.69
70921;BME280;58572;48.110;19.838;2023-04-06T05:35:51;97671.16;;;1.22;51.44
70921;BME280;58572;48.110;19.838;2023-04-06T05:38:18;97683.22;;;1.13;52.19
70921;BME280;58572;48.110;19.838;2023-04-06T05:40:47;97671.88;;;1.30;51.60
70921;BME280;58572;48.110;19.838;2023-04-06T05:43:14;97588.59;;;0.78;51.66
70921;BME280;58572;48.110;19.838;2023-04-06T05:45:41;97676.56;;;1.46;50.99
70921;BME280;58572;48.110;19.838;2023-04-06T05:48:10;97674.34;;;1.43;51.00
70921;BME280;58572;48.110;19.838;2023-04-06T05:50:37;97672.13;;;1.40;51.34
70921;BME280;58572;48.110;19.838;2023-04-06T05:53:04;97661.66;;;1.50;51.12
70921;BME280;58572;48.110;19.838;2023-04-06T05:55:33;97669.81;;;1.55;51.01
70921;BME280;58572;48.110;19.838;2023-04-06T05:58:01;97667.13;;;1.55;51.05
70921;BME280;58572;48.110;19.838;2023-04-06T06:00:28;97664.34;;;1.73;50.64
70921;BME280;58572;48.110;19.838;2023-04-06T06:02:55;97656.91;;;1.87;50.00
70921;BME280;58572;48.110;19.838;2023-04-06T06:05:22;97657.00;;;2.04;49.86
70921;BME280;58572;48.110;19.838;2023-04-06T06:07:49;97663.28;;;1.39;51.46
70921;BME280;58572;48.110;19.838;2023-04-06T06:10:16;97655.97;;;2.05;49.94
70921;BME280;58572;48.110;19.838;2023-04-06T06:12:44;97665.06;;;2.04;49.88
70921;BME280;58572;48.110;19.838;2023-04-06T06:15:12;97657.13;;;2.32;49.56
70921;BME280;58572;48.110;19.838;2023-04-06T06:17:40;97657.84;;;1.92;50.13
70921;BME280;58572;48.110;19.838;2023-04-06T06:20:08;97647.78;;;2.75;48.38
70921;BME280;58572;48.110;19.838;2023-04-06T06:22:34;97646.16;;;3.02;47.94
70921;BME280;58572;48.110;19.838;2023-04-06T06:25:02;97523.28;;;2.19;48.06
70921;BME280;58572;48.110;19.838;2023-04-06T06:27:29;97650.53;;;2.51;49.16
70921;BME280;58572;48.110;19.838;2023-04-06T06:29:56;97646.13;;;2.45;49.15
70921;BME280;58572;48.110;19.838;2023-04-06T06:32:25;97648.72;;;2.69;48.92
70921;BME280;58572;48.110;19.838;2023-04-06T06:34:52;97640.63;;;2.80;48.59
70921;BME280;58572;48.110;19.838;2023-04-06T06:37:19;97646.00;;;2.52;48.79
70921;BME280;58572;48.110;19.838;2023-04-06T06:39:46;97646.38;;;2.32;49.42
70921;BME280;58572;48.110;19.838;2023-04-06T06:42:13;97597.22;;;2.15;50.08
70921;BME280;58572;48.110;19.838;2023-04-06T06:44:40;97644.03;;;2.76;49.22
70921;BME280;58572;48.110;19.838;2023-04-06T06:47:07;97641.03;;;2.72;47.89
70921;BME280;58572;48.110;19.838;2023-04-06T06:49:36;97641.44;;;2.81;48.49
70921;BME280;58572;48.110;19.838;2023-04-06T06:52:03;97636.88;;;3.38;46.51
70921;BME280;58572;48.110;19.838;2023-04-06T06:54:30;97605.88;;;2.45;48.78
70921;BME280;58572;48.110;19.838;2023-04-06T06:56:57;97640.41;;;2.82;48.19
70921;BME280;58572;48.110;19.838;2023-04-06T06:59:25;97643.50;;;2.91;48.01
70921;BME280;58572;48.110;19.838;2023-04-06T07:01:52;97634.94;;;2.77;47.98
70921;BME280;58572;48.110;19.838;2023-04-06T07:04:19;97640.53;;;2.75;48.27
70921;BME280;58572;48.110;19.838;2023-04-06T07:06:48;97651.38;;;2.40;47.34
70921;BME280;58572;48.110;19.838;2023-04-06T07:09:16;97608.72;;;2.27;47.53
70921;BME280;58572;48.110;19.838;2023-04-06T07:11:43;97534.66;;;2.83;47.07
70921;BME280;58572;48.110;19.838;2023-04-06T07:14:10;97639.31;;;2.14;48.21
70921;BME280;58572;48.110;19.838;2023-04-06T07:16:37;97638.59;;;2.07;48.12
70921;BME280;58572;48.110;19.838;2023-04-06T07:19:04;97641.16;;;2.94;47.19
70921;BME280;58572;48.110;19.838;2023-04-06T07:21:31;97623.91;;;3.52;46.91
70921;BME280;58572;48.110;19.838;2023-04-06T07:24:00;97630.03;;;3.31;47.00
70921;BME280;58572;48.110;19.838;2023-04-06T07:26:27;97637.50;;;3.00;46.60
70921;BME280;58572;48.110;19.838;2023-04-06T07:28:54;97598.69;;;3.19;46.79
70921;BME280;58572;48.110;19.838;2023-04-06T07:31:21;97628.69;;;3.83;47.29
70921;BME280;58572;48.110;19.838;2023-04-06T07:33:48;97623.06;;;4.02;45.47
70921;BME280;58572;48.110;19.838;2023-04-06T07:36:15;97624.00;;;4.29;44.73
70921;BME280;58572;48.110;19.838;2023-04-06T07:38:43;97624.13;;;4.39;45.56
70921;BME280;58572;48.110;19.838;2023-04-06T07:41:13;97618.28;;;4.47;45.78
70921;BME280;58572;48.110;19.838;2023-04-06T07:43:40;97623.75;;;5.01;44.49
70921;BME280;58572;48.110;19.838;2023-04-06T07:46:07;97623.34;;;4.66;44.42
70921;BME280;58572;48.110;19.838;2023-04-06T07:48:34;97629.88;;;4.70;43.08
70921;BME280;58572;48.110;19.838;2023-04-06T07:51:03;97623.31;;;4.39;43.95
70921;BME280;58572;48.110;19.838;2023-04-06T07:53:33;97629.69;;;5.03;44.52
70921;BME280;58572;48.110;19.838;2023-04-06T07:56:00;97627.34;;;5.12;43.42
70921;BME280;58572;48.110;19.838;2023-04-06T07:58:29;97624.75;;;4.95;43.68
70921;BME280;58572;48.110;19.838;2023-04-06T08:00:56;97609.59;;;5.16;43.10
70921;BME280;58572;48.110;19.838;2023-04-06T08:03:23;97545.69;;;4.53;43.66
70921;BME280;58572;48.110;19.838;2023-04-06T08:05:51;97626.25;;;5.35;43.10
70921;BME280;58572;48.110;19.838;2023-04-06T08:08:19;97643.91;;;4.99;43.82
70921;BME280;58572;48.110;19.838;2023-04-06T08:10:46;97544.63;;;4.54;43.58
70921;BME280;58572;48.110;19.838;2023-04-06T08:13:14;97626.06;;;4.93;43.61
70921;BME280;58572;48.110;19.838;2023-04-06T08:15:42;97632.22;;;5.42;41.76
70921;BME280;58572;48.110;19.838;2023-04-06T08:18:10;97629.03;;;5.45;41.75
70921;BME280;58572;48.110;19.838;2023-04-06T08:20:37;97628.47;;;5.43;40.89
70921;BME280;58572;48.110;19.838;2023-04-06T08:23:04;97630.50;;;5.04;42.12
70921;BME280;58572;48.110;19.838;2023-04-06T08:25:31;97632.66;;;5.29;42.04
70921;BME280;58572;48.110;19.838;2023-04-06T08:27:59;97630.59;;;5.41;41.43
70921;BME280;58572;48.110;19.838;2023-04-06T08:30:27;97633.59;;;5.76;41.20
70921;BME280;58572;48.110;19.838;2023-04-06T08:32:55;97631.16;;;5.43;41.46
70921;BME280;58572;48.110;19.838;2023-04-06T08:35:22;97627.00;;;5.94;40.56
70921;BME280;58572;48.110;19.838;2023-04-06T08:37:49;97622.56;;;5.19;39.44
70921;BME280;58572;48.110;19.838;2023-04-06T08:40:16;97637.75;;;3.77;39.78
70921;BME280;58572;48.110;19.838;2023-04-06T08:42:48;97644.84;;;3.05;41.90
70921;BME280;58572;48.110;19.838;2023-04-06T08:45:16;97636.38;;;3.58;42.51
70921;BME280;58572;48.110;19.838;2023-04-06T08:47:46;97617.59;;;5.33;41.63
70921;BME280;58572;48.110;19.838;2023-04-06T08:50:16;97577.25;;;5.16;40.90
70921;BME280;58572;48.110;19.838;2023-04-06T08:52:46;97621.63;;;5.99;41.15
70921;BME280;58572;48.110;19.838;2023-04-06T08:55:13;97615.41;;;5.94;38.11
70921;BME280;58572;48.110;19.838;2023-04-06T08:57:41;97620.44;;;5.48;38.42
70921;BME280;58572;48.110;19.838;2023-04-06T09:00:10;97618.00;;;5.84;40.75
70921;BME280;58572;48.110;19.838;2023-04-06T09:02:39;97622.47;;;5.09;40.78
70921;BME280;58572;48.110;19.838;2023-04-06T09:05:09;97617.69;;;5.43;40.88
70921;BME280;58572;48.110;19.838;2023-04-06T09:07:38;97617.19;;;4.92;41.52
70921;BME280;58572;48.110;19.838;2023-04-06T09:10:06;97632.84;;;4.95;43.15
70921;BME280;58572;48.110;19.838;2023-04-06T09:12:34;97635.88;;;4.77;43.41
70921;BME280;58572;48.110;19.838;2023-04-06T09:15:02;97634.75;;;4.29;44.45
70921;BME280;58572;48.110;19.838;2023-04-06T09:17:31;97634.66;;;3.85;46.34
70921;BME280;58572;48.110;19.838;2023-04-06T09:19:59;97645.00;;;4.32;46.68
70921;BME280;58572;48.110;19.838;2023-04-06T09:22:34;97642.53;;;4.47;45.95
70921;BME280;58572;48.110;19.838;2023-04-06T09:25:05;97619.22;;;4.36;46.34
70921;BME280;58572;48.110;19.838;2023-04-06T09:27:33;97636.59;;;4.94;45.64
70921;BME280;58572;48.110;19.838;2023-04-06T09:30:06;97642.78;;;4.95;49.99
70921;BME280;58572;48.110;19.838;2023-04-06T09:32:44;97638.38;;;5.10;46.57
70921;BME280;58572;48.110;19.838;2023-04-06T09:35:12;97644.09;;;4.65;48.12
70921;BME280;58572;48.110;19.838;2023-04-06T09:37:40;97649.50;;;4.92;49.40
70921;BME280;58572;48.110;19.838;2023-04-06T09:40:09;97644.88;;;4.22;50.34
70921;BME280;58572;48.110;19.838;2023-04-06T09:42:36;97378.66;;;2.79;49.39
70921;BME280;58572;48.110;19.838;2023-04-06T09:45:04;97642.25;;;4.27;51.80
70921;BME280;58572;48.110;19.838;2023-04-06T09:47:32;97600.47;;;4.41;50.65
70921;BME280;58572;48.110;19.838;2023-04-06T09:50:01;97636.50;;;5.11;49.05
70921;BME280;58572;48.110;19.838;2023-04-06T09:52:32;97636.47;;;5.33;50.26
70921;BME280;58572;48.110;19.838;2023-04-06T09:55:03;97642.47;;;3.37;56.83
70921;BME280;58572;48.110;19.838;2023-04-06T09:57:37;97638.28;;;5.00;50.92
70921;BME280;58572;48.110;19.838;2023-04-06T10:00:08;97630.16;;;5.22;50.18
70921;BME280;58572;48.110;19.838;2023-04-06T10:02:44;97640.31;;;4.88;51.68
70921;BME280;58572;48.110;19.838;2023-04-06T10:05:17;97629.22;;;5.11;50.51
70921;BME280;58572;48.110;19.838;2023-04-06T10:07:48;97636.00;;;5.41;50.70
70921;BME280;58572;48.110;19.838;2023-04-06T10:10:17;97636.50;;;4.40;54.82
70921;BME280;58572;48.110;19.838;2023-04-06T10:12:47;97621.38;;;5.32;50.71
70921;BME280;58572;48.110;19.838;2023-04-06T10:15:15;97630.34;;;5.16;50.88
70921;BME280;58572;48.110;19.838;2023-04-06T10:17:43;97637.03;;;3.65;56.03
70921;BME280;58572;48.110;19.838;2023-04-06T10:20:14;97621.56;;;5.25;50.39
70921;BME280;58572;48.110;19.838;2023-04-06T10:22:47;97619.59;;;5.48;54.76
70921;BME280;58572;48.110;19.838;2023-04-06T10:25:26;97629.22;;;4.19;54.39
70921;BME280;58572;48.110;19.838;2023-04-06T10:28:01;97620.00;;;5.29;50.87
70921;BME280;58572;48.110;19.838;2023-04-06T10:30:29;97618.34;;;5.01;53.31
70921;BME280;58572;48.110;19.838;2023-04-06T10:32:56;97615.56;;;5.18;51.08
70921;BME280;58572;48.110;19.838;2023-04-06T10:35:24;97609.03;;;5.41;51.40
70921;BME280;58572;48.110;19.838;2023-04-06T10:37:52;97572.50;;;5.55;51.86
70921;BME280;58572;48.110;19.838;2023-04-06T10:40:23;97606.63;;;5.76;50.15
70921;BME280;58572;48.110;19.838;2023-04-06T10:42:52;97607.63;;;5.06;57.71
70921;BME280;58572;48.110;19.838;2023-04-06T10:45:22;97609.25;;;5.66;54.11
70921;BME280;58572;48.110;19.838;2023-04-06T10:47:52;97584.53;;;5.16;51.92
70921;BME280;58572;48.110;19.838;2023-04-06T10:50:20;97590.59;;;4.74;54.95
70921;BME280;58572;48.110;19.838;2023-04-06T10:52:58;97598.78;;;5.11;52.29
70921;BME280;58572;48.110;19.838;2023-04-06T10:55:26;97603.72;;;5.51;51.85
70921;BME280;58572;48.110;19.838;2023-04-06T10:57:54;97605.38;;;4.71;53.40
70921;BME280;58572;48.110;19.838;2023-04-06T11:00:23;97601.75;;;3.78;55.83
70921;BME280;58572;48.110;19.838;2023-04-06T11:02:50;97600.19;;;4.65;53.94
70921;BME280;58572;48.110;19.838;2023-04-06T11:05:18;97593.16;;;5.44;53.41
70921;BME280;58572;48.110;19.838;2023-04-06T11:07:45;97591.47;;;6.07;50.13
70921;BME280;58572;48.110;19.838;2023-04-06T11:10:21;97605.97;;;3.07;62.08
70921;BME280;58572;48.110;19.838;2023-04-06T11:12:53;97601.16;;;4.15;58.56
70921;BME280;58572;48.110;19.838;2023-04-06T11:15:21;97473.72;;;2.67;59.30
70921;BME280;58572;48.110;19.838;2023-04-06T11:17:49;97573.38;;;4.75;53.67
70921;BME280;58572;48.110;19.838;2023-04-06T11:20:16;97600.59;;;5.05;53.85
70921;BME280;58572;48.110;19.838;2023-04-06T11:22:49;97611.56;;;5.21;53.24
70921;BME280;58572;48.110;19.838;2023-04-06T11:25:17;97599.78;;;4.78;55.20
70921;BME280;58572;48.110;19.838;2023-04-06T11:27:44;97566.34;;;4.47;54.69
70921;BME280;58572;48.110;19.838;2023-04-06T11:30:13;97597.19;;;4.61;56.51
70921;BME280;58572;48.110;19.838;2023-04-06T11:32:41;97591.63;;;4.95;54.33
70921;BME280;58572;48.110;19.838;2023-04-06T11:35:14;97589.25;;;5.25;53.01
70921;BME280;58572;48.110;19.838;2023-04-06T11:37:45;97576.31;;;5.27;52.94
70921;BME280;58572;48.110;19.838;2023-04-06T11:40:13;97578.56;;;4.81;53.96
70921;BME280;58572;48.110;19.838;2023-04-06T11:42:40;97575.75;;;4.98;55.04
70921;BME280;58572;48.110;19.838;2023-04-06T11:45:07;97584.19;;;4.80;54.22
70921;BME280;58572;48.110;19.838;2023-04-06T11:47:36;97574.78;;;4.56;55.24
70921;BME280;58572;48.110;19.838;2023-04-06T11:50:08;97566.97;;;4.32;56.38
70921;BME280;58572;48.110;19.838;2023-04-06T11:52:37;97566.06;;;4.97;53.47
70921;BME280;58572;48.110;19.838;2023-04-06T11:55:13;97565.38;;;5.12;53.88
70921;BME280;58572;48.110;19.838;2023-04-06T11:57:41;97570.94;;;5.27;53.53
70921;BME280;58572;48.110;19.838;2023-04-06T12:00:10;97564.31;;;4.86;55.51
70921;BME280;58572;48.110;19.838;2023-04-06T12:02:37;97563.91;;;4.99;54.89
70921;BME280;58572;48.110;19.838;2023-04-06T12:05:06;97553.06;;;5.53;53.24
70921;BME280;58572;48.110;19.838;2023-04-06T12:07:33;97560.59;;;4.16;58.42
70921;BME280;58572;48.110;19.838;2023-04-06T12:10:03;97558.34;;;4.30;57.85
70921;BME280;58572;48.110;19.838;2023-04-06T12:12:31;97554.31;;;5.08;54.98
70921;BME280;58572;48.110;19.838;2023-04-06T12:14:58;97553.09;;;4.94;55.48
70921;BME280;58572;48.110;19.838;2023-04-06T12:17:25;97518.75;;;4.26;58.03
70921;BME280;58572;48.110;19.838;2023-04-06T12:19:52;97553.53;;;4.32;63.18
70921;BME280;58572;48.110;19.838;2023-04-06T12:22:19;97550.72;;;4.71;60.84
70921;BME280;58572;48.110;19.838;2023-04-06T12:24:46;97550.00;;;4.10;60.28
70921;BME280;58572;48.110;19.838;2023-04-06T12:27:15;97546.25;;;4.55;56.99
70921;BME280;58572;48.110;19.838;2023-04-06T12:29:42;97545.09;;;5.04;55.38
70921;BME280;58572;48.110;19.838;2023-04-06T12:32:09;97555.66;;;2.29;67.17
70921;BME280;58572;48.110;19.838;2023-04-06T12:34:38;97540.25;;;4.47;57.95
70921;BME280;58572;48.110;19.838;2023-04-06T12:37:04;97543.06;;;4.14;59.32
70921;BME280;58572;48.110;19.838;2023-04-06T12:39:31;97534.75;;;4.91;57.13
70921;BME280;58572;48.110;19.838;2023-04-06T12:41:59;97540.09;;;4.59;57.33
70921;BME280;58572;48.110;19.838;2023-04-06T12:44:28;97546.31;;;5.19;54.88
70921;BME280;58572;48.110;19.838;2023-04-06T12:46:56;97534.75;;;4.64;57.35
70921;BME280;58572;48.110;19.838;2023-04-06T12:49:23;97528.66;;;4.74;56.20
70921;BME280;58572;48.110;19.838;2023-04-06T12:51:50;97524.31;;;4.68;56.33
70921;BME280;58572;48.110;19.838;2023-04-06T12:54:17;97528.56;;;4.64;56.79
70921;BME280;58572;48.110;19.838;2023-04-06T12:56:45;97532.72;;;5.03;55.63
70921;BME280;58572;48.110;19.838;2023-04-06T12:59:12;97525.19;;;5.05;56.24
70921;BME280;58572;48.110;19.838;2023-04-06T13:01:41;97525.94;;;5.01;55.56
70921;BME280;58572;48.110;19.838;2023-04-06T13:04:11;97526.75;;;4.69;56.79